sensor_id;sensor_type;location;lat;lon;timestamp;P1;durP1;ratioP1;P2;durP2;ratioP2
8622;SDS011;4349;47.552;8.904;2023-03-15T00:01:38;1.20;;;1.10;;
8622;SDS011;4349;47.552;8.904;2023-03-15T00:04:05;0.90;;;0.90;;
8622;SDS011;4349;47.552;8.904;2023-03-15T00:06:33;0.97;;;0.97;;
8622;SDS011;4349;47.552;8.904;2023-03-15T00:09:01;0.90;;;0.90;;
8622;SDS011;4349;47.552;8.904;2023-03-15T00:11:29;0.90;;;0.90;;
8622;SDS011;4349;47.552;8.904;2023-03-15T00:13:58;1.00;;;1.00;;
8622;SDS011;4349;47.552;8.904;2023-03-15T00:16:27;0.80;;;0.80;;
8622;SDS011;4349;47.552;8.904;2023-03-15T00:18:55;0.93;;;0.93;;
8622;SDS011;4349;47.552;8.904;2023-03-15T00:21:22;1.10;;;1.10;;
8622;SDS011;4349;47.552;8.904;2023-03-15T00:23:50;1.03;;;0.97;;
8622;SDS011;4349;47.552;8.904;2023-03-15T00:26:18;0.93;;;0.93;;
8622;SDS011;4349;47.552;8.904;2023-03-15T00:28:46;0.90;;;0.90;;
8622;SDS011;4349;47.552;8.904;2023-03-15T00:31:15;1.00;;;1.00;;
8622;SDS011;4349;47.552;8.904;2023-03-15T00:33:43;0.90;;;0.90;;
8622;SDS011;4349;47.552;8.904;2023-03-15T00:36:11;0.97;;;0.97;;
8622;SDS011;4349;47.552;8.904;2023-03-15T00:38:39;0.80;;;0.80;;
8622;SDS011;4349;47.552;8.904;2023-03-15T00:41:09;0.77;;;0.77;;
8622;SDS011;4349;47.552;8.904;2023-03-15T00:43:36;0.90;;;0.90;;
8622;SDS011;4349;47.552;8.904;2023-03-15T00:46:04;0.80;;;0.80;;
8622;SDS011;4349;47.552;8.904;2023-03-15T00:48:33;0.90;;;0.90;;
8622;SDS011;4349;47.552;8.904;2023-03-15T00:51:05;0.80;;;0.80;;
8622;SDS011;4349;47.552;8.904;2023-03-15T00:53:32;0.90;;;0.90;;
8622;SDS011;4349;47.552;8.904;2023-03-15T00:56:04;1.07;;;0.90;;
8622;SDS011;4349;47.552;8.904;2023-03-15T00:58:31;0.90;;;0.90;;
8622;SDS011;4349;47.552;8.904;2023-03-15T01:00:59;0.87;;;0.87;;
8622;SDS011;4349;47.552;8.904;2023-03-15T01:03:27;1.00;;;1.00;;
8622;SDS011;4349;47.552;8.904;2023-03-15T01:05:56;0.90;;;0.90;;
8622;SDS011;4349;47.552;8.904;2023-03-15T01:08:24;0.87;;;0.87;;
8622;SDS011;4349;47.552;8.904;2023-03-15T01:10:51;0.93;;;0.93;;
8622;SDS011;4349;47.552;8.904;2023-03-15T01:13:20;1.10;;;1.10;;
8622;SDS011;4349;47.552;8.904;2023-03-15T01:15:47;0.90;;;0.90;;
8622;SDS011;4349;47.552;8.904;2023-03-15T01:18:15;1.10;;;1.10;;
8622;SDS011;4349;47.552;8.904;2023-03-15T01:20:42;1.00;;;1.00;;
8622;SDS011;4349;47.552;8.904;2023-03-15T01:23:12;1.00;;;1.00;;
8622;SDS011;4349;47.552;8.904;2023-03-15T01:25:41;0.70;;;0.70;;
8622;SDS011;4349;47.552;8.904;2023-03-15T01:28:08;0.80;;;0.80;;
8622;SDS011;4349;47.552;8.904;2023-03-15T01:30:36;0.80;;;0.80;;
8622;SDS011;4349;47.552;8.904;2023-03-15T01:33:03;1.00;;;1.00;;
8622;SDS011;4349;47.552;8.904;2023-03-15T01:35:31;1.00;;;1.00;;
8622;SDS011;4349;47.552;8.904;2023-03-15T01:37:58;0.90;;;0.90;;
8622;SDS011;4349;47.552;8.904;2023-03-15T01:40:28;1.07;;;1.07;;
8622;SDS011;4349;47.552;8.904;2023-03-15T01:43:10;1.40;;;1.00;;
8622;SDS011;4349;47.552;8.904;2023-03-15T01:45:53;1.00;;;1.00;;
8622;SDS011;4349;47.552;8.904;2023-03-15T01:48:21;1.10;;;1.10;;
8622;SDS011;4349;47.552;8.904;2023-03-15T01:50:50;1.10;;;1.10;;
8622;SDS011;4349;47.552;8.904;2023-03-15T01:53:20;1.07;;;1.07;;
8622;SDS011;4349;47.552;8.904;2023-03-15T01:55:49;1.33;;;1.23;;
8622;SDS011;4349;47.552;8.904;2023-03-15T01:58:23;1.00;;;1.00;;
8622;SDS011;4349;47.552;8.904;2023-03-15T02:00:53;1.00;;;1.00;;
8622;SDS011;4349;47.552;8.904;2023-03-15T02:03:22;1.60;;;1.40;;
8622;SDS011;4349;47.552;8.904;2023-03-15T02:05:53;1.10;;;1.10;;
8622;SDS011;4349;47.552;8.904;2023-03-15T02:08:36;1.20;;;1.20;;
8622;SDS011;4349;47.552;8.904;2023-03-15T02:11:05;1.40;;;1.33;;
8622;SDS011;4349;47.552;8.904;2023-03-15T02:13:33;1.60;;;1.50;;
8622;SDS011;4349;47.552;8.904;2023-03-15T02:16:06;1.60;;;1.50;;
8622;SDS011;4349;47.552;8.904;2023-03-15T02:18:43;1.37;;;1.37;;
8622;SDS011;4349;47.552;8.904;2023-03-15T02:21:14;1.50;;;1.40;;
8622;SDS011;4349;47.552;8.904;2023-03-15T02:23:43;1.40;;;1.40;;
8622;SDS011;4349;47.552;8.904;2023-03-15T02:26:15;1.40;;;1.40;;
8622;SDS011;4349;47.552;8.904;2023-03-15T02:28:45;1.47;;;1.37;;
8622;SDS011;4349;47.552;8.904;2023-03-15T02:31:13;1.40;;;1.40;;
8622;SDS011;4349;47.552;8.904;2023-03-15T02:33:42;1.60;;;1.50;;
8622;SDS011;4349;47.552;8.904;2023-03-15T02:36:13;1.43;;;1.43;;
8622;SDS011;4349;47.552;8.904;2023-03-15T02:38:41;1.43;;;1.43;;
8622;SDS011;4349;47.552;8.904;2023-03-15T02:41:10;1.17;;;1.17;;
8622;SDS011;4349;47.552;8.904;2023-03-15T02:43:38;1.50;;;1.40;;
8622;SDS011;4349;47.552;8.904;2023-03-15T02:46:08;1.47;;;1.43;;
8622;SDS011;4349;47.552;8.904;2023-03-15T02:48:36;1.73;;;1.50;;
8622;SDS011;4349;47.552;8.904;2023-03-15T02:51:04;1.40;;;1.40;;
8622;SDS011;4349;47.552;8.904;2023-03-15T02:53:33;1.50;;;1.40;;
8622;SDS011;4349;47.552;8.904;2023-03-15T02:56:01;1.33;;;1.23;;
8622;SDS011;4349;47.552;8.904;2023-03-15T02:58:28;1.50;;;1.40;;
8622;SDS011;4349;47.552;8.904;2023-03-15T03:00:59;2.00;;;1.63;;
8622;SDS011;4349;47.552;8.904;2023-03-15T03:03:28;1.43;;;1.43;;
8622;SDS011;4349;47.552;8.904;2023-03-15T03:05:59;1.60;;;1.50;;
8622;SDS011;4349;47.552;8.904;2023-03-15T03:08:26;1.40;;;1.40;;
8622;SDS011;4349;47.552;8.904;2023-03-15T03:10:54;1.70;;;1.60;;
8622;SDS011;4349;47.552;8.904;2023-03-15T03:13:22;1.43;;;1.33;;
8622;SDS011;4349;47.552;8.904;2023-03-15T03:15:49;3.20;;;1.53;;
8622;SDS011;4349;47.552;8.904;2023-03-15T03:18:26;1.60;;;1.50;;
8622;SDS011;4349;47.552;8.904;2023-03-15T03:20:56;2.83;;;1.53;;
8622;SDS011;4349;47.552;8.904;2023-03-15T03:23:25;1.63;;;1.53;;
8622;SDS011;4349;47.552;8.904;2023-03-15T03:25:53;1.50;;;1.40;;
8622;SDS011;4349;47.552;8.904;2023-03-15T03:28:20;3.20;;;1.80;;
8622;SDS011;4349;47.552;8.904;2023-03-15T03:30:49;1.40;;;1.40;;
8622;SDS011;4349;47.552;8.904;2023-03-15T03:33:17;1.53;;;1.43;;
8622;SDS011;4349;47.552;8.904;2023-03-15T03:35:46;1.73;;;1.47;;
8622;SDS011;4349;47.552;8.904;2023-03-15T03:38:15;2.30;;;1.70;;
8622;SDS011;4349;47.552;8.904;2023-03-15T03:40:48;1.80;;;1.70;;
8622;SDS011;4349;47.552;8.904;2023-03-15T03:43:16;1.80;;;1.70;;
8622;SDS011;4349;47.552;8.904;2023-03-15T03:45:43;1.57;;;1.50;;
8622;SDS011;4349;47.552;8.904;2023-03-15T03:48:11;2.17;;;1.43;;
8622;SDS011;4349;47.552;8.904;2023-03-15T03:50:39;1.60;;;1.60;;
8622;SDS011;4349;47.552;8.904;2023-03-15T03:53:06;1.47;;;1.47;;
8622;SDS011;4349;47.552;8.904;2023-03-15T03:55:35;2.17;;;1.83;;
8622;SDS011;4349;47.552;8.904;2023-03-15T03:58:03;1.50;;;1.40;;
8622;SDS011;4349;47.552;8.904;2023-03-15T04:00:42;1.83;;;1.50;;
8622;SDS011;4349;47.552;8.904;2023-03-15T04:03:10;1.30;;;1.30;;
8622;SDS011;4349;47.552;8.904;2023-03-15T04:05:41;1.40;;;1.40;;
8622;SDS011;4349;47.552;8.904;2023-03-15T04:08:14;1.53;;;1.53;;
8622;SDS011;4349;47.552;8.904;2023-03-15T04:10:43;1.80;;;1.70;;
8622;SDS011;4349;47.552;8.904;2023-03-15T04:13:10;2.53;;;1.63;;
8622;SDS011;4349;47.552;8.904;2023-03-15T04:15:38;1.67;;;1.60;;
8622;SDS011;4349;47.552;8.904;2023-03-15T04:18:08;5.93;;;1.90;;
8622;SDS011;4349;47.552;8.904;2023-03-15T04:20:39;4.00;;;1.70;;
8622;SDS011;4349;47.552;8.904;2023-03-15T04:23:13;2.93;;;1.87;;
8622;SDS011;4349;47.552;8.904;2023-03-15T04:25:54;2.00;;;1.90;;
8622;SDS011;4349;47.552;8.904;2023-03-15T04:28:41;1.73;;;1.50;;
8622;SDS011;4349;47.552;8.904;2023-03-15T04:31:36;3.97;;;1.80;;
8622;SDS011;4349;47.552;8.904;2023-03-15T04:34:13;1.70;;;1.60;;
8622;SDS011;4349;47.552;8.904;2023-03-15T04:37:03;1.70;;;1.60;;
8622;SDS011;4349;47.552;8.904;2023-03-15T04:39:39;1.50;;;1.50;;
8622;SDS011;4349;47.552;8.904;2023-03-15T04:42:29;2.10;;;1.50;;
8622;SDS011;4349;47.552;8.904;2023-03-15T04:44:56;1.80;;;1.70;;
8622;SDS011;4349;47.552;8.904;2023-03-15T04:47:53;1.50;;;1.50;;
8622;SDS011;4349;47.552;8.904;2023-03-15T04:50:27;1.60;;;1.50;;
8622;SDS011;4349;47.552;8.904;2023-03-15T04:53:06;1.70;;;1.60;;
8622;SDS011;4349;47.552;8.904;2023-03-15T04:55:44;2.20;;;1.90;;
8622;SDS011;4349;47.552;8.904;2023-03-15T04:58:33;2.00;;;1.80;;
8622;SDS011;4349;47.552;8.904;2023-03-15T05:01:08;2.43;;;1.80;;
8622;SDS011;4349;47.552;8.904;2023-03-15T05:04:07;2.40;;;1.50;;
8622;SDS011;4349;47.552;8.904;2023-03-15T05:06:54;2.00;;;1.83;;
8622;SDS011;4349;47.552;8.904;2023-03-15T05:09:42;2.40;;;2.20;;
8622;SDS011;4349;47.552;8.904;2023-03-15T05:12:30;2.03;;;1.93;;
8622;SDS011;4349;47.552;8.904;2023-03-15T05:15:18;3.17;;;2.13;;
8622;SDS011;4349;47.552;8.904;2023-03-15T05:18:02;2.23;;;2.03;;
8622;SDS011;4349;47.552;8.904;2023-03-15T05:20:49;2.37;;;2.10;;
8622;SDS011;4349;47.552;8.904;2023-03-15T05:23:27;2.40;;;2.20;;
8622;SDS011;4349;47.552;8.904;2023-03-15T05:26:27;2.63;;;2.40;;
8622;SDS011;4349;47.552;8.904;2023-03-15T05:29:30;4.53;;;2.77;;
8622;SDS011;4349;47.552;8.904;2023-03-15T05:32:45;2.77;;;2.60;;
8622;SDS011;4349;47.552;8.904;2023-03-15T05:35:41;2.43;;;2.20;;
8622;SDS011;4349;47.552;8.904;2023-03-15T05:38:36;2.10;;;2.00;;
8622;SDS011;4349;47.552;8.904;2023-03-15T05:41:25;2.13;;;2.00;;
8622;SDS011;4349;47.552;8.904;2023-03-15T05:44:04;2.63;;;2.10;;
8622;SDS011;4349;47.552;8.904;2023-03-15T05:46:39;3.13;;;2.13;;
8622;SDS011;4349;47.552;8.904;2023-03-15T05:49:34;2.57;;;2.37;;
8622;SDS011;4349;47.552;8.904;2023-03-15T05:52:09;3.47;;;3.20;;
8622;SDS011;4349;47.552;8.904;2023-03-15T05:55:09;3.50;;;3.27;;
8622;SDS011;4349;47.552;8.904;2023-03-15T05:57:51;4.80;;;3.20;;
8622;SDS011;4349;47.552;8.904;2023-03-15T06:00:19;3.10;;;2.90;;
8622;SDS011;4349;47.552;8.904;2023-03-15T06:02:51;2.93;;;2.73;;
8622;SDS011;4349;47.552;8.904;2023-03-15T06:05:46;2.87;;;2.77;;
8622;SDS011;4349;47.552;8.904;2023-03-15T06:08:18;2.80;;;2.70;;
8622;SDS011;4349;47.552;8.904;2023-03-15T06:10:48;3.23;;;2.87;;
8622;SDS011;4349;47.552;8.904;2023-03-15T06:13:15;3.50;;;3.20;;
8622;SDS011;4349;47.552;8.904;2023-03-15T06:15:45;8.00;;;3.37;;
8622;SDS011;4349;47.552;8.904;2023-03-15T06:18:14;3.37;;;2.50;;
8622;SDS011;4349;47.552;8.904;2023-03-15T06:20:47;2.60;;;2.40;;
8622;SDS011;4349;47.552;8.904;2023-03-15T06:23:16;2.57;;;2.37;;
8622;SDS011;4349;47.552;8.904;2023-03-15T06:25:45;2.77;;;2.53;;
8622;SDS011;4349;47.552;8.904;2023-03-15T06:28:13;2.47;;;2.30;;
8622;SDS011;4349;47.552;8.904;2023-03-15T06:30:47;2.60;;;2.40;;
8622;SDS011;4349;47.552;8.904;2023-03-15T06:33:15;3.73;;;2.40;;
8622;SDS011;4349;47.552;8.904;2023-03-15T06:35:45;2.57;;;2.37;;
8622;SDS011;4349;47.552;8.904;2023-03-15T06:38:14;3.27;;;2.63;;
8622;SDS011;4349;47.552;8.904;2023-03-15T06:40:42;3.57;;;2.73;;
8622;SDS011;4349;47.552;8.904;2023-03-15T06:43:09;3.00;;;2.70;;
8622;SDS011;4349;47.552;8.904;2023-03-15T06:45:43;3.30;;;3.07;;
8622;SDS011;4349;47.552;8.904;2023-03-15T06:48:11;3.97;;;3.57;;
8622;SDS011;4349;47.552;8.904;2023-03-15T06:50:39;5.10;;;3.40;;
8622;SDS011;4349;47.552;8.904;2023-03-15T06:53:14;3.63;;;3.43;;
8622;SDS011;4349;47.552;8.904;2023-03-15T06:55:43;3.57;;;3.30;;
8622;SDS011;4349;47.552;8.904;2023-03-15T06:58:10;4.40;;;2.90;;
8622;SDS011;4349;47.552;8.904;2023-03-15T07:00:38;3.20;;;2.90;;
8622;SDS011;4349;47.552;8.904;2023-03-15T07:03:06;3.50;;;2.87;;
8622;SDS011;4349;47.552;8.904;2023-03-15T07:05:33;2.80;;;2.60;;
8622;SDS011;4349;47.552;8.904;2023-03-15T07:08:00;3.40;;;2.63;;
8622;SDS011;4349;47.552;8.904;2023-03-15T07:10:29;3.97;;;2.80;;
8622;SDS011;4349;47.552;8.904;2023-03-15T07:12:57;3.20;;;3.00;;
8622;SDS011;4349;47.552;8.904;2023-03-15T07:15:24;3.13;;;2.77;;
8622;SDS011;4349;47.552;8.904;2023-03-15T07:17:52;2.93;;;2.73;;
8622;SDS011;4349;47.552;8.904;2023-03-15T07:20:19;3.00;;;2.80;;
8622;SDS011;4349;47.552;8.904;2023-03-15T07:22:46;4.13;;;3.73;;
8622;SDS011;4349;47.552;8.904;2023-03-15T07:25:15;2.93;;;2.60;;
8622;SDS011;4349;47.552;8.904;2023-03-15T07:27:50;3.57;;;3.00;;
8622;SDS011;4349;47.552;8.904;2023-03-15T07:30:17;3.00;;;2.80;;
8622;SDS011;4349;47.552;8.904;2023-03-15T07:32:45;4.27;;;3.00;;
8622;SDS011;4349;47.552;8.904;2023-03-15T07:35:13;3.30;;;3.03;;
8622;SDS011;4349;47.552;8.904;2023-03-15T07:37:42;2.60;;;2.50;;
8622;SDS011;4349;47.552;8.904;2023-03-15T07:40:10;3.20;;;2.90;;
8622;SDS011;4349;47.552;8.904;2023-03-15T07:42:39;3.40;;;3.20;;
8622;SDS011;4349;47.552;8.904;2023-03-15T07:45:08;3.50;;;2.77;;
8622;SDS011;4349;47.552;8.904;2023-03-15T07:47:36;2.50;;;2.30;;
8622;SDS011;4349;47.552;8.904;2023-03-15T07:50:04;5.13;;;2.80;;
8622;SDS011;4349;47.552;8.904;2023-03-15T07:52:31;3.03;;;2.73;;
8622;SDS011;4349;47.552;8.904;2023-03-15T07:54:59;2.87;;;2.63;;
8622;SDS011;4349;47.552;8.904;2023-03-15T07:57:26;3.80;;;2.83;;
8622;SDS011;4349;47.552;8.904;2023-03-15T07:59:54;2.77;;;2.43;;
8622;SDS011;4349;47.552;8.904;2023-03-15T08:02:23;2.70;;;2.60;;
8622;SDS011;4349;47.552;8.904;2023-03-15T08:04:50;2.93;;;2.70;;
8622;SDS011;4349;47.552;8.904;2023-03-15T08:07:18;3.80;;;2.70;;
8622;SDS011;4349;47.552;8.904;2023-03-15T08:09:45;4.40;;;4.00;;
8622;SDS011;4349;47.552;8.904;2023-03-15T08:12:13;4.20;;;4.00;;
8622;SDS011;4349;47.552;8.904;2023-03-15T08:14:40;4.33;;;4.00;;
8622;SDS011;4349;47.552;8.904;2023-03-15T08:17:08;3.70;;;3.50;;
8622;SDS011;4349;47.552;8.904;2023-03-15T08:19:39;3.73;;;3.40;;
8622;SDS011;4349;47.552;8.904;2023-03-15T08:22:07;2.70;;;2.60;;
8622;SDS011;4349;47.552;8.904;2023-03-15T08:24:34;3.50;;;3.20;;
8622;SDS011;4349;47.552;8.904;2023-03-15T08:27:02;2.93;;;2.73;;
8622;SDS011;4349;47.552;8.904;2023-03-15T08:29:32;3.07;;;2.87;;
8622;SDS011;4349;47.552;8.904;2023-03-15T08:31:59;2.70;;;2.50;;
8622;SDS011;4349;47.552;8.904;2023-03-15T08:34:27;2.80;;;2.60;;
8622;SDS011;4349;47.552;8.904;2023-03-15T08:36:55;2.80;;;2.70;;
8622;SDS011;4349;47.552;8.904;2023-03-15T08:39:23;2.80;;;2.60;;
8622;SDS011;4349;47.552;8.904;2023-03-15T08:41:55;2.70;;;2.50;;
8622;SDS011;4349;47.552;8.904;2023-03-15T08:44:23;2.43;;;2.23;;
8622;SDS011;4349;47.552;8.904;2023-03-15T08:46:50;2.50;;;2.30;;
8622;SDS011;4349;47.552;8.904;2023-03-15T08:49:18;2.47;;;2.27;;
8622;SDS011;4349;47.552;8.904;2023-03-15T08:51:45;2.70;;;2.20;;
8622;SDS011;4349;47.552;8.904;2023-03-15T08:54:14;2.10;;;2.00;;
8622;SDS011;4349;47.552;8.904;2023-03-15T08:56:42;2.43;;;2.30;;
8622;SDS011;4349;47.552;8.904;2023-03-15T08:59:09;2.50;;;2.40;;
8622;SDS011;4349;47.552;8.904;2023-03-15T09:01:47;2.13;;;2.03;;
8622;SDS011;4349;47.552;8.904;2023-03-15T09:04:15;2.20;;;2.10;;
8622;SDS011;4349;47.552;8.904;2023-03-15T09:06:42;1.97;;;1.80;;
8622;SDS011;4349;47.552;8.904;2023-03-15T09:09:10;1.70;;;1.70;;
8622;SDS011;4349;47.552;8.904;2023-03-15T09:11:39;2.00;;;1.90;;
8622;SDS011;4349;47.552;8.904;2023-03-15T09:14:06;1.97;;;1.80;;
8622;SDS011;4349;47.552;8.904;2023-03-15T09:16:33;2.00;;;1.90;;
8622;SDS011;4349;47.552;8.904;2023-03-15T09:19:01;1.87;;;1.83;;
8622;SDS011;4349;47.552;8.904;2023-03-15T09:21:28;2.07;;;1.90;;
8622;SDS011;4349;47.552;8.904;2023-03-15T09:23:56;2.03;;;1.80;;
8622;SDS011;4349;47.552;8.904;2023-03-15T09:26:24;1.87;;;1.80;;
8622;SDS011;4349;47.552;8.904;2023-03-15T09:28:53;1.97;;;1.87;;
8622;SDS011;4349;47.552;8.904;2023-03-15T09:31:20;1.63;;;1.63;;
8622;SDS011;4349;47.552;8.904;2023-03-15T09:33:48;1.70;;;1.60;;
8622;SDS011;4349;47.552;8.904;2023-03-15T09:36:15;1.93;;;1.83;;
8622;SDS011;4349;47.552;8.904;2023-03-15T09:38:42;1.80;;;1.70;;
8622;SDS011;4349;47.552;8.904;2023-03-15T09:41:15;1.50;;;1.50;;
8622;SDS011;4349;47.552;8.904;2023-03-15T09:43:51;1.97;;;1.97;;
8622;SDS011;4349;47.552;8.904;2023-03-15T09:46:27;2.13;;;1.80;;
8622;SDS011;4349;47.552;8.904;2023-03-15T09:48:58;2.00;;;1.73;;
8622;SDS011;4349;47.552;8.904;2023-03-15T09:51:29;2.33;;;1.60;;
8622;SDS011;4349;47.552;8.904;2023-03-15T09:54:02;1.50;;;1.50;;
8622;SDS011;4349;47.552;8.904;2023-03-15T09:56:32;1.63;;;1.63;;
8622;SDS011;4349;47.552;8.904;2023-03-15T09:59:09;1.63;;;1.63;;
8622;SDS011;4349;47.552;8.904;2023-03-15T10:01:44;1.40;;;1.40;;
8622;SDS011;4349;47.552;8.904;2023-03-15T10:04:15;1.43;;;1.20;;
8622;SDS011;4349;47.552;8.904;2023-03-15T10:06:54;1.73;;;1.63;;
8622;SDS011;4349;47.552;8.904;2023-03-15T10:09:22;1.70;;;1.70;;
8622;SDS011;4349;47.552;8.904;2023-03-15T10:11:55;1.73;;;1.70;;
8622;SDS011;4349;47.552;8.904;2023-03-15T10:14:27;2.20;;;2.00;;
8622;SDS011;4349;47.552;8.904;2023-03-15T10:17:00;1.90;;;1.80;;
8622;SDS011;4349;47.552;8.904;2023-03-15T10:19:33;2.80;;;1.80;;
8622;SDS011;4349;47.552;8.904;2023-03-15T10:22:03;2.60;;;1.70;;
8622;SDS011;4349;47.552;8.904;2023-03-15T10:24:36;1.60;;;1.60;;
8622;SDS011;4349;47.552;8.904;2023-03-15T10:27:08;1.60;;;1.50;;
8622;SDS011;4349;47.552;8.904;2023-03-15T10:29:39;2.50;;;1.50;;
8622;SDS011;4349;47.552;8.904;2023-03-15T10:32:10;1.20;;;1.20;;
8622;SDS011;4349;47.552;8.904;2023-03-15T10:34:42;1.30;;;1.20;;
8622;SDS011;4349;47.552;8.904;2023-03-15T10:37:12;1.20;;;1.20;;
8622;SDS011;4349;47.552;8.904;2023-03-15T10:39:40;1.57;;;1.17;;
8622;SDS011;4349;47.552;8.904;2023-03-15T10:42:22;1.20;;;1.20;;
8622;SDS011;4349;47.552;8.904;2023-03-15T10:44:50;1.20;;;1.20;;
8622;SDS011;4349;47.552;8.904;2023-03-15T10:47:27;1.53;;;1.30;;
8622;SDS011;4349;47.552;8.904;2023-03-15T10:49:55;1.13;;;1.13;;
8622;SDS011;4349;47.552;8.904;2023-03-15T10:52:27;1.40;;;1.30;;
8622;SDS011;4349;47.552;8.904;2023-03-15T10:54:54;1.13;;;1.13;;
8622;SDS011;4349;47.552;8.904;2023-03-15T10:57:31;1.40;;;1.23;;
8622;SDS011;4349;47.552;8.904;2023-03-15T11:00:00;1.10;;;1.10;;
8622;SDS011;4349;47.552;8.904;2023-03-15T11:03:16;1.07;;;1.07;;
8622;SDS011;4349;47.552;8.904;2023-03-15T11:05:45;0.93;;;0.93;;
8622;SDS011;4349;47.552;8.904;2023-03-15T11:08:13;1.00;;;1.00;;
8622;SDS011;4349;47.552;8.904;2023-03-15T11:10:42;1.90;;;1.20;;
8622;SDS011;4349;47.552;8.904;2023-03-15T11:13:11;1.13;;;1.13;;
8622;SDS011;4349;47.552;8.904;2023-03-15T11:15:39;1.20;;;1.20;;
8622;SDS011;4349;47.552;8.904;2023-03-15T11:18:17;1.10;;;1.10;;
8622;SDS011;4349;47.552;8.904;2023-03-15T11:20:45;1.00;;;1.00;;
8622;SDS011;4349;47.552;8.904;2023-03-15T11:23:14;0.90;;;0.90;;
8622;SDS011;4349;47.552;8.904;2023-03-15T11:25:41;0.90;;;0.90;;
8622;SDS011;4349;47.552;8.904;2023-03-15T11:28:10;1.00;;;1.00;;
8622;SDS011;4349;47.552;8.904;2023-03-15T11:30:42;1.10;;;1.00;;
8622;SDS011;4349;47.552;8.904;2023-03-15T11:33:09;0.93;;;0.93;;
8622;SDS011;4349;47.552;8.904;2023-03-15T11:35:42;0.90;;;0.90;;
8622;SDS011;4349;47.552;8.904;2023-03-15T11:38:13;0.80;;;0.80;;
8622;SDS011;4349;47.552;8.904;2023-03-15T11:40:44;1.10;;;1.00;;
8622;SDS011;4349;47.552;8.904;2023-03-15T11:43:14;0.80;;;0.80;;
8622;SDS011;4349;47.552;8.904;2023-03-15T11:45:44;0.97;;;0.97;;
8622;SDS011;4349;47.552;8.904;2023-03-15T11:48:33;0.70;;;0.70;;
8622;SDS011;4349;47.552;8.904;2023-03-15T11:51:07;0.83;;;0.83;;
8622;SDS011;4349;47.552;8.904;2023-03-15T11:53:37;0.90;;;0.90;;
8622;SDS011;4349;47.552;8.904;2023-03-15T11:56:20;0.80;;;0.80;;
8622;SDS011;4349;47.552;8.904;2023-03-15T11:58:58;1.00;;;1.00;;
8622;SDS011;4349;47.552;8.904;2023-03-15T12:01:29;0.80;;;0.80;;
8622;SDS011;4349;47.552;8.904;2023-03-15T12:06:43;1.00;;;1.00;;
8622;SDS011;4349;47.552;8.904;2023-03-15T12:11:57;0.70;;;0.70;;
8622;SDS011;4349;47.552;8.904;2023-03-15T12:14:26;0.67;;;0.67;;
8622;SDS011;4349;47.552;8.904;2023-03-15T12:19:42;0.90;;;0.90;;
8622;SDS011;4349;47.552;8.904;2023-03-15T12:22:14;0.70;;;0.70;;
8622;SDS011;4349;47.552;8.904;2023-03-15T12:24:43;1.03;;;0.93;;
8622;SDS011;4349;47.552;8.904;2023-03-15T12:27:13;1.13;;;1.00;;
8622;SDS011;4349;47.552;8.904;2023-03-15T12:29:42;1.00;;;1.00;;
8622;SDS011;4349;47.552;8.904;2023-03-15T12:32:11;1.10;;;0.70;;
8622;SDS011;4349;47.552;8.904;2023-03-15T12:34:44;1.20;;;0.90;;
8622;SDS011;4349;47.552;8.904;2023-03-15T12:37:14;1.10;;;0.60;;
8622;SDS011;4349;47.552;8.904;2023-03-15T12:39:44;0.90;;;0.90;;
8622;SDS011;4349;47.552;8.904;2023-03-15T12:42:12;1.83;;;1.00;;
8622;SDS011;4349;47.552;8.904;2023-03-15T12:44:41;0.90;;;0.90;;
8622;SDS011;4349;47.552;8.904;2023-03-15T12:47:09;1.20;;;1.20;;
8622;SDS011;4349;47.552;8.904;2023-03-15T12:49:38;0.90;;;0.90;;
8622;SDS011;4349;47.552;8.904;2023-03-15T12:52:12;0.77;;;0.77;;
8622;SDS011;4349;47.552;8.904;2023-03-15T12:54:42;0.90;;;0.90;;
8622;SDS011;4349;47.552;8.904;2023-03-15T12:57:10;0.80;;;0.80;;
8622;SDS011;4349;47.552;8.904;2023-03-15T12:59:47;1.00;;;1.00;;
8622;SDS011;4349;47.552;8.904;2023-03-15T13:02:19;0.80;;;0.80;;
8622;SDS011;4349;47.552;8.904;2023-03-15T13:05:12;0.87;;;0.83;;
8622;SDS011;4349;47.552;8.904;2023-03-15T13:07:45;1.33;;;1.00;;
8622;SDS011;4349;47.552;8.904;2023-03-15T13:10:21;0.90;;;0.90;;
8622;SDS011;4349;47.552;8.904;2023-03-15T13:12:52;0.70;;;0.70;;
8622;SDS011;4349;47.552;8.904;2023-03-15T13:15:23;1.00;;;1.00;;
8622;SDS011;4349;47.552;8.904;2023-03-15T13:17:55;1.10;;;1.10;;
8622;SDS011;4349;47.552;8.904;2023-03-15T13:20:34;1.00;;;1.00;;
8622;SDS011;4349;47.552;8.904;2023-03-15T13:23:05;0.87;;;0.87;;
8622;SDS011;4349;47.552;8.904;2023-03-15T13:25:40;0.87;;;0.87;;
8622;SDS011;4349;47.552;8.904;2023-03-15T13:28:14;0.90;;;0.90;;
8622;SDS011;4349;47.552;8.904;2023-03-15T13:30:45;0.87;;;0.87;;
8622;SDS011;4349;47.552;8.904;2023-03-15T13:33:17;0.87;;;0.87;;
8622;SDS011;4349;47.552;8.904;2023-03-15T13:35:46;1.10;;;1.10;;
8622;SDS011;4349;47.552;8.904;2023-03-15T13:38:24;1.10;;;1.00;;
8622;SDS011;4349;47.552;8.904;2023-03-15T13:40:54;1.00;;;1.00;;
8622;SDS011;4349;47.552;8.904;2023-03-15T13:43:25;0.90;;;0.90;;
8622;SDS011;4349;47.552;8.904;2023-03-15T13:45:55;1.30;;;1.30;;
8622;SDS011;4349;47.552;8.904;2023-03-15T13:48:24;0.80;;;0.80;;
8622;SDS011;4349;47.552;8.904;2023-03-15T13:50:52;1.13;;;1.13;;
8622;SDS011;4349;47.552;8.904;2023-03-15T13:53:20;0.90;;;0.90;;
8622;SDS011;4349;47.552;8.904;2023-03-15T13:56:13;1.00;;;1.00;;
8622;SDS011;4349;47.552;8.904;2023-03-15T13:58:41;1.13;;;1.13;;
8622;SDS011;4349;47.552;8.904;2023-03-15T14:01:10;1.47;;;1.10;;
8622;SDS011;4349;47.552;8.904;2023-03-15T14:03:39;1.03;;;1.03;;
8622;SDS011;4349;47.552;8.904;2023-03-15T14:06:10;1.00;;;1.00;;
8622;SDS011;4349;47.552;8.904;2023-03-15T14:08:38;0.97;;;0.97;;
8622;SDS011;4349;47.552;8.904;2023-03-15T14:11:07;1.00;;;0.97;;
8622;SDS011;4349;47.552;8.904;2023-03-15T14:13:47;0.90;;;0.90;;
8622;SDS011;4349;47.552;8.904;2023-03-15T14:16:15;1.07;;;1.07;;
8622;SDS011;4349;47.552;8.904;2023-03-15T14:18:43;1.33;;;1.30;;
8622;SDS011;4349;47.552;8.904;2023-03-15T14:21:12;1.10;;;1.10;;
8622;SDS011;4349;47.552;8.904;2023-03-15T14:23:41;1.37;;;1.03;;
8622;SDS011;4349;47.552;8.904;2023-03-15T14:26:10;0.80;;;0.80;;
8622;SDS011;4349;47.552;8.904;2023-03-15T14:28:39;2.73;;;0.80;;
8622;SDS011;4349;47.552;8.904;2023-03-15T14:31:11;1.17;;;1.07;;
8622;SDS011;4349;47.552;8.904;2023-03-15T14:33:52;0.70;;;0.70;;
8622;SDS011;4349;47.552;8.904;2023-03-15T14:36:22;1.00;;;0.90;;
8622;SDS011;4349;47.552;8.904;2023-03-15T14:39:15;0.70;;;0.70;;
8622;SDS011;4349;47.552;8.904;2023-03-15T14:41:43;1.63;;;0.90;;
8622;SDS011;4349;47.552;8.904;2023-03-15T14:44:11;0.90;;;0.90;;
8622;SDS011;4349;47.552;8.904;2023-03-15T14:46:40;0.73;;;0.73;;
8622;SDS011;4349;47.552;8.904;2023-03-15T14:49:09;1.27;;;1.27;;
8622;SDS011;4349;47.552;8.904;2023-03-15T14:51:38;1.13;;;0.80;;
8622;SDS011;4349;47.552;8.904;2023-03-15T14:54:05;0.90;;;0.90;;
8622;SDS011;4349;47.552;8.904;2023-03-15T14:56:33;1.00;;;1.00;;
8622;SDS011;4349;47.552;8.904;2023-03-15T14:59:05;0.80;;;0.80;;
8622;SDS011;4349;47.552;8.904;2023-03-15T15:01:35;2.27;;;1.03;;
8622;SDS011;4349;47.552;8.904;2023-03-15T15:04:05;1.27;;;1.00;;
8622;SDS011;4349;47.552;8.904;2023-03-15T15:06:32;1.33;;;1.00;;
8622;SDS011;4349;47.552;8.904;2023-03-15T15:09:04;0.83;;;0.83;;
8622;SDS011;4349;47.552;8.904;2023-03-15T15:11:32;0.87;;;0.80;;
8622;SDS011;4349;47.552;8.904;2023-03-15T15:13:59;1.60;;;0.97;;
8622;SDS011;4349;47.552;8.904;2023-03-15T15:16:26;1.13;;;0.80;;
8622;SDS011;4349;47.552;8.904;2023-03-15T15:18:54;1.63;;;1.00;;
8622;SDS011;4349;47.552;8.904;2023-03-15T15:21:23;2.00;;;1.00;;
8622;SDS011;4349;47.552;8.904;2023-03-15T15:23:52;1.17;;;0.90;;
8622;SDS011;4349;47.552;8.904;2023-03-15T15:26:24;0.90;;;0.90;;
8622;SDS011;4349;47.552;8.904;2023-03-15T15:28:52;0.70;;;0.70;;
8622;SDS011;4349;47.552;8.904;2023-03-15T15:31:21;0.80;;;0.80;;
8622;SDS011;4349;47.552;8.904;2023-03-15T15:33:49;0.70;;;0.70;;
8622;SDS011;4349;47.552;8.904;2023-03-15T15:36:18;0.70;;;0.70;;
8622;SDS011;4349;47.552;8.904;2023-03-15T15:38:48;0.70;;;0.70;;
8622;SDS011;4349;47.552;8.904;2023-03-15T15:41:17;0.70;;;0.70;;
8622;SDS011;4349;47.552;8.904;2023-03-15T15:43:45;0.70;;;0.70;;
8622;SDS011;4349;47.552;8.904;2023-03-15T15:46:12;0.70;;;0.70;;
8622;SDS011;4349;47.552;8.904;2023-03-15T15:48:40;0.50;;;0.50;;
8622;SDS011;4349;47.552;8.904;2023-03-15T15:51:12;0.50;;;0.50;;